createdAt,value
2023-05-22T00:01:46.887Z,96788.38
2023-05-22T00:04:13.771Z,96780.03
2023-05-22T00:06:43.854Z,96785.66
2023-05-22T00:09:11.072Z,96784.44
2023-05-22T00:11:37.865Z,96786.34
2023-05-22T00:14:04.588Z,96785.19
2023-05-22T00:16:31.464Z,96795.69
2023-05-22T00:18:59.181Z,96792.72
2023-05-22T00:21:27.808Z,96790.13
2023-05-22T00:23:54.509Z,96793.47
2023-05-22T00:26:23.377Z,96794.75
2023-05-22T00:28:50.329Z,96793.09
2023-05-22T00:31:17.024Z,96791.53
2023-05-22T00:33:43.789Z,96789.78
2023-05-22T00:36:10.756Z,96791.72
2023-05-22T00:38:38.165Z,96792.09
2023-05-22T00:41:06.450Z,96790.78
2023-05-22T00:43:33.802Z,96793.41
2023-05-22T00:46:00.546Z,96793.44
2023-05-22T00:48:27.723Z,96787.34
2023-05-22T00:50:55.839Z,96786.28
2023-05-22T00:53:24.582Z,96787.38
2023-05-22T00:55:52.274Z,96790.38
2023-05-22T00:58:19.488Z,96782.97
2023-05-22T01:00:46.873Z,96786.78
2023-05-22T01:03:14.848Z,96787.03
2023-05-22T01:05:42.766Z,96776.66
2023-05-22T01:08:09.817Z,96783.06
2023-05-22T01:10:38.243Z,96783.56
2023-05-22T01:13:12.768Z,96783.13
2023-05-22T01:15:50.044Z,96784.53
2023-05-22T01:18:32.534Z,96787.50
2023-05-22T01:21:24.234Z,96778.34
2023-05-22T01:24:13.944Z,96778.56
2023-05-22T01:26:58.893Z,96781.59
2023-05-22T01:29:29.052Z,96786.75
2023-05-22T01:31:58.371Z,96790.56
2023-05-22T01:34:25.832Z,96783.03
2023-05-22T01:36:54.816Z,96786.25
2023-05-22T01:39:22.503Z,96780.97
2023-05-22T01:41:49.642Z,96789.59
2023-05-22T01:44:16.507Z,96795.34
2023-05-22T01:46:43.236Z,96801.44
2023-05-22T01:49:09.855Z,96807.03
2023-05-22T01:51:58.027Z,96806.19
2023-05-22T01:54:58.375Z,96804.53
2023-05-22T01:57:28.821Z,96798.34
2023-05-22T02:00:15.475Z,96809.91
2023-05-22T02:02:49.533Z,96810.25
2023-05-22T02:05:21.224Z,96808.97
2023-05-22T02:07:48.432Z,96804.88
2023-05-22T02:10:17.857Z,96796.06
2023-05-22T02:12:44.918Z,96798.81
2023-05-22T02:15:11.841Z,96802.97
2023-05-22T02:17:41.931Z,96801.66
2023-05-22T02:20:15.280Z,96802.94
2023-05-22T02:22:44.989Z,96792.84
2023-05-22T02:25:15.186Z,96799.16
2023-05-22T02:27:46.117Z,96801.31
2023-05-22T02:30:13.989Z,96800.59
2023-05-22T02:32:42.144Z,96800.00
2023-05-22T02:35:09.663Z,96796.53
2023-05-22T02:37:36.601Z,96801.16
2023-05-22T02:40:06.281Z,96788.53
2023-05-22T02:42:33.375Z,96797.59
2023-05-22T02:45:01.208Z,96790.34
2023-05-22T02:47:27.991Z,96789.84
2023-05-22T02:49:57.861Z,96779.03
2023-05-22T02:52:25.079Z,96791.53
2023-05-22T02:54:51.888Z,96782.00
2023-05-22T02:57:19.784Z,96782.59
2023-05-22T02:59:46.651Z,96787.72
2023-05-22T03:02:15.391Z,96783.91
2023-05-22T03:04:42.262Z,96778.66
2023-05-22T03:07:09.042Z,96776.16
2023-05-22T03:09:36.244Z,96781.63
2023-05-22T03:12:03.024Z,96778.53
2023-05-22T03:14:30.071Z,96782.00
2023-05-22T03:16:58.925Z,96792.59
2023-05-22T03:19:26.542Z,96790.34
2023-05-22T03:21:53.361Z,96790.34
2023-05-22T03:24:20.965Z,96791.88
2023-05-22T03:26:47.723Z,96787.25
2023-05-22T03:29:20.678Z,96785.94
2023-05-22T03:31:47.637Z,96791.78
2023-05-22T03:34:15.020Z,96781.38
2023-05-22T03:36:45.160Z,96790.34
2023-05-22T03:39:13.376Z,96792.84
2023-05-22T03:41:48.425Z,96793.91
2023-05-22T03:44:15.385Z,96788.06
2023-05-22T03:46:43.213Z,96791.66
2023-05-22T03:49:09.963Z,96792.50
2023-05-22T03:51:37.023Z,96791.88
2023-05-22T03:54:03.926Z,96789.41
2023-05-22T03:56:30.679Z,96794.41
2023-05-22T03:58:57.448Z,96790.72
2023-05-22T04:01:24.374Z,96795.69
2023-05-22T04:03:51.288Z,96785.59
2023-05-22T04:06:21.669Z,96796.19
2023-05-22T04:08:48.582Z,96791.16
2023-05-22T04:11:19.374Z,96793.91
2023-05-22T04:13:49.000Z,96790.00
2023-05-22T04:16:17.578Z,96789.50
2023-05-22T04:18:44.551Z,96790.97
2023-05-22T04:21:12.773Z,96791.16
2023-05-22T04:23:43.216Z,96794.75
2023-05-22T04:26:10.388Z,96792.63
2023-05-22T04:28:37.908Z,96798.09
2023-05-22T04:31:06.794Z,96801.41
2023-05-22T04:33:34.570Z,96809.69
2023-05-22T04:36:02.439Z,96811.72
2023-05-22T04:38:29.226Z,96811.47
2023-05-22T04:40:56.679Z,96815.75
2023-05-22T04:43:26.390Z,96806.69
2023-05-22T04:45:54.190Z,96808.56
2023-05-22T04:48:20.924Z,96813.81
2023-05-22T04:50:48.295Z,96813.56
2023-05-22T04:53:15.041Z,96816.66
2023-05-22T04:55:42.347Z,96816.41
2023-05-22T04:58:09.053Z,96817.88
2023-05-22T05:00:35.949Z,96819.50
2023-05-22T05:03:03.844Z,96819.81
2023-05-22T05:05:30.706Z,96825.59
2023-05-22T05:07:57.406Z,96820.16
2023-05-22T05:10:24.417Z,96825.78
2023-05-22T05:12:52.471Z,96819.63
2023-05-22T05:15:19.379Z,96819.63
2023-05-22T05:17:47.566Z,96824.53
2023-05-22T05:20:14.747Z,96824.19
2023-05-22T05:22:43.843Z,96828.13
2023-05-22T05:25:11.775Z,96829.53
2023-05-22T05:27:39.832Z,96831.34
2023-05-22T05:30:07.263Z,96839.16
2023-05-22T05:33:02.973Z,96834.38
2023-05-22T05:35:36.828Z,96838.94
2023-05-22T05:38:08.500Z,96836.19
2023-05-22T05:40:37.765Z,96835.28
2023-05-22T05:43:09.180Z,96832.00
2023-05-22T05:45:36.302Z,96833.50
2023-05-22T05:48:03.039Z,96830.94
2023-05-22T05:50:30.722Z,96838.13
2023-05-22T05:52:57.974Z,96844.88
2023-05-22T05:55:24.763Z,96835.53
2023-05-22T05:57:52.351Z,96835.63
2023-05-22T06:00:26.384Z,96842.56
2023-05-22T06:02:55.045Z,96844.59
2023-05-22T06:05:32.210Z,96842.31
2023-05-22T06:08:21.882Z,96847.69
2023-05-22T06:10:48.975Z,96857.75
2023-05-22T06:13:30.553Z,96853.97
2023-05-22T06:15:59.582Z,71793.91
2023-05-22T06:18:28.471Z,71793.91
2023-05-22T06:20:59.023Z,71793.91
2023-05-22T06:23:25.932Z,71793.91
2023-05-22T06:25:54.602Z,71793.91
2023-05-22T06:28:21.516Z,71793.91
2023-05-22T06:30:49.372Z,71793.91
2023-05-22T06:33:19.024Z,71793.91
2023-05-22T06:35:45.973Z,71793.91
2023-05-22T06:38:12.862Z,71793.91
2023-05-22T06:40:41.802Z,71793.91
2023-05-22T06:43:21.480Z,71793.91
2023-05-22T06:45:59.049Z,71793.91
2023-05-22T06:48:37.979Z,71793.91
2023-05-22T06:51:11.773Z,71793.91
2023-05-22T06:53:40.782Z,71793.91
2023-05-22T06:56:12.969Z,71793.91
2023-05-22T06:58:51.335Z,71793.91
2023-05-22T07:01:19.305Z,71793.91
2023-05-22T07:04:00.411Z,71793.91
2023-05-22T07:06:41.767Z,96856.03
2023-05-22T07:09:11.009Z,71793.91
2023-05-22T07:11:38.915Z,-13732.97
2023-05-22T07:14:12.560Z,96856.03
2023-05-22T07:16:43.965Z,96856.03
2023-05-22T07:19:12.522Z,96856.03
2023-05-22T07:21:40.720Z,96856.03
2023-05-22T07:24:11.463Z,96856.03
2023-05-22T07:26:46.492Z,96856.03
2023-05-22T07:29:21.280Z,71793.91
2023-05-22T07:31:51.347Z,96856.03
2023-05-22T07:34:18.395Z,71793.91
2023-05-22T07:36:47.228Z,96856.03
2023-05-22T07:39:16.178Z,91999.78
2023-05-22T07:41:50.177Z,96856.03
2023-05-22T07:44:19.999Z,71793.91
2023-05-22T07:46:47.542Z,71793.91
2023-05-22T07:49:22.094Z,96856.03
2023-05-22T07:51:49.996Z,71793.91
2023-05-22T07:54:18.550Z,71793.91
2023-05-22T07:56:49.629Z,96881.03
2023-05-22T07:59:19.676Z,96877.88
2023-05-22T08:01:46.469Z,96882.19
2023-05-22T08:04:13.390Z,96873.81
2023-05-22T08:06:41.198Z,96880.78
2023-05-22T08:09:07.814Z,96878.09
2023-05-22T08:11:35.093Z,96883.81
2023-05-22T08:14:01.854Z,96888.53
2023-05-22T08:16:28.578Z,96889.78
2023-05-22T08:18:55.553Z,96893.50
2023-05-22T08:21:22.213Z,96894.84
2023-05-22T08:23:48.919Z,96894.28
2023-05-22T08:26:16.049Z,96895.34
2023-05-22T08:28:44.385Z,96882.97
2023-05-22T08:31:11.776Z,96882.91
2023-05-22T08:33:39.321Z,96884.91
2023-05-22T08:36:06.348Z,96882.13
2023-05-22T08:38:33.087Z,96882.59
2023-05-22T08:41:01.300Z,96881.94
2023-05-22T08:43:28.712Z,96876.31
2023-05-22T08:46:06.076Z,96884.28
2023-05-22T08:48:33.661Z,96876.31
2023-05-22T08:51:05.160Z,96885.75
2023-05-22T08:53:35.494Z,96886.03
2023-05-22T08:56:06.016Z,96899.41
2023-05-22T08:58:33.896Z,96885.63
2023-05-22T09:01:00.966Z,96885.81
2023-05-22T09:03:33.222Z,96887.28
2023-05-22T09:06:01.231Z,96882.56
2023-05-22T09:08:28.969Z,96889.91
2023-05-22T09:10:56.414Z,96886.84
2023-05-22T09:13:32.446Z,96892.16
2023-05-22T09:16:11.455Z,96888.19
2023-05-22T09:18:38.657Z,96882.22
2023-05-22T09:21:11.537Z,96884.91
2023-05-22T09:23:50.381Z,96890.94
2023-05-22T09:26:17.493Z,96883.59
2023-05-22T09:28:44.571Z,96889.19
2023-05-22T09:31:11.475Z,96889.31
2023-05-22T09:33:38.220Z,96888.75
2023-05-22T09:36:09.115Z,96886.72
2023-05-22T09:38:36.124Z,96888.34
2023-05-22T09:41:02.988Z,96892.38
2023-05-22T09:43:29.874Z,96886.41
2023-05-22T09:46:06.478Z,96886.78
2023-05-22T09:48:36.582Z,96888.69
2023-05-22T09:51:03.488Z,96889.09
2023-05-22T09:53:32.415Z,96881.22
2023-05-22T09:56:00.518Z,96879.66
2023-05-22T09:58:31.035Z,96882.44
2023-05-22T10:00:58.308Z,96883.44
2023-05-22T10:03:27.084Z,96873.50
2023-05-22T10:05:58.029Z,96881.59
2023-05-22T10:08:27.020Z,96878.16
2023-05-22T10:10:53.926Z,96867.63
2023-05-22T10:13:21.576Z,96877.88
2023-05-22T10:15:49.410Z,96869.50
2023-05-22T10:18:17.446Z,96877.16
2023-05-22T10:20:45.040Z,96875.25
2023-05-22T10:23:12.420Z,96870.28
2023-05-22T10:25:39.168Z,96871.28
2023-05-22T10:28:07.114Z,96865.63
2023-05-22T10:30:36.847Z,96868.19
2023-05-22T10:33:26.166Z,96855.22
2023-05-22T10:35:54.201Z,96862.88
2023-05-22T10:38:44.629Z,96857.19
2023-05-22T10:41:11.607Z,96862.03
2023-05-22T10:43:44.622Z,96866.22
2023-05-22T10:46:14.304Z,96858.34
2023-05-22T10:48:48.531Z,96859.34
2023-05-22T10:51:19.384Z,96847.22
2023-05-22T10:53:53.263Z,96844.16
2023-05-22T10:56:20.410Z,96837.28
2023-05-22T10:59:08.171Z,96844.81
2023-05-22T11:01:37.834Z,96858.66
2023-05-22T11:04:20.298Z,96855.94
2023-05-22T11:07:05.418Z,96863.16
2023-05-22T11:09:45.918Z,96872.41
2023-05-22T11:12:21.363Z,96870.44
2023-05-22T11:14:58.712Z,96864.03
2023-05-22T11:17:30.765Z,96870.34
2023-05-22T11:20:07.493Z,96861.59
2023-05-22T11:22:36.762Z,96856.78
2023-05-22T11:25:07.173Z,96858.06
2023-05-22T11:27:34.126Z,96851.34
2023-05-22T11:30:01.839Z,96863.53
2023-05-22T11:32:29.001Z,96855.03
2023-05-22T11:34:56.875Z,96854.28
2023-05-22T11:37:23.843Z,96848.03
2023-05-22T11:39:52.276Z,96858.72
2023-05-22T11:42:19.810Z,96858.47
2023-05-22T11:44:46.582Z,96866.34
2023-05-22T11:47:13.832Z,96872.41
2023-05-22T11:49:44.046Z,96888.53
2023-05-22T11:52:11.015Z,96891.31
2023-05-22T11:54:38.963Z,96900.25
2023-05-22T11:57:09.161Z,96890.41
2023-05-22T11:59:36.224Z,96899.78
2023-05-22T12:02:03.058Z,96900.91
2023-05-22T12:04:29.860Z,96893.28
2023-05-22T12:06:56.889Z,96895.84
2023-05-22T12:09:24.015Z,96885.34
2023-05-22T12:11:50.866Z,96884.69
2023-05-22T12:14:18.667Z,96884.69
2023-05-22T12:16:45.384Z,96886.91
2023-05-22T12:19:13.776Z,96886.91
2023-05-22T12:21:43.896Z,71793.91
2023-05-22T12:24:11.072Z,96901.72
2023-05-22T12:26:38.009Z,96908.91
2023-05-22T12:29:04.739Z,96910.25
2023-05-22T12:31:36.751Z,96916.75
2023-05-22T12:34:05.598Z,96909.72
2023-05-22T12:36:38.390Z,167540.81
2023-05-22T12:39:13.799Z,96904.66
2023-05-22T12:41:40.747Z,96904.66
2023-05-22T12:44:07.760Z,71793.91
2023-05-22T12:46:34.920Z,96924.50
2023-05-22T12:49:01.896Z,71793.91
2023-05-22T12:51:31.471Z,71793.91
2023-05-22T12:54:02.496Z,71793.91
2023-05-22T12:56:29.967Z,96942.25
2023-05-22T12:58:57.992Z,71793.91
2023-05-22T13:01:25.183Z,96930.31
2023-05-22T13:03:52.605Z,96930.31
2023-05-22T13:06:20.436Z,71793.91
2023-05-22T13:08:47.135Z,96905.59
2023-05-22T13:11:13.904Z,71793.91
2023-05-22T13:13:40.589Z,96890.81
2023-05-22T13:16:07.414Z,96891.16
2023-05-22T13:18:34.122Z,71793.91
2023-05-22T13:21:00.932Z,96884.19
2023-05-22T13:23:27.921Z,96883.06
2023-05-22T13:25:54.696Z,96883.06
2023-05-22T13:28:21.399Z,96880.81
2023-05-22T13:30:48.060Z,96880.81
2023-05-22T13:33:14.839Z,96880.81
2023-05-22T13:35:41.782Z,71793.91
2023-05-22T13:38:09.059Z,71793.91
2023-05-22T13:40:35.821Z,74577.16
2023-05-22T13:43:03.117Z,74576.34
2023-05-22T13:45:31.246Z,74576.34
2023-05-22T13:47:57.981Z,74574.66
2023-05-22T13:50:24.819Z,71793.91
2023-05-22T13:52:54.335Z,74572.78
2023-05-22T13:55:22.944Z,74572.78
2023-05-22T13:57:49.589Z,74571.22
2023-05-22T14:00:16.711Z,74569.44
2023-05-22T14:02:44.471Z,74569.78
2023-05-22T14:05:11.319Z,74571.31
2023-05-22T14:07:38.148Z,74572.44
2023-05-22T14:10:05.326Z,74574.47
2023-05-22T14:12:32.065Z,91489.56
2023-05-22T14:14:58.796Z,71793.91
2023-05-22T14:17:25.403Z,74579.44
2023-05-22T14:19:52.234Z,71793.91
2023-05-22T14:22:18.905Z,71793.91
2023-05-22T14:24:45.698Z,74587.53
2023-05-22T14:27:12.318Z,74592.50
2023-05-22T14:29:39.018Z,74598.31
2023-05-22T14:32:05.827Z,74598.31
2023-05-22T14:34:32.636Z,74604.41
2023-05-22T14:36:59.352Z,74577.50
2023-05-22T14:39:26.502Z,74616.69
2023-05-22T14:41:53.919Z,71793.91
2023-05-22T14:44:22.732Z,74627.31
2023-05-22T14:46:51.036Z,74633.22
2023-05-22T14:49:18.037Z,74639.75
2023-05-22T14:51:48.104Z,74639.75
2023-05-22T14:54:17.655Z,74644.88
2023-05-22T14:56:44.997Z,58890.06
2023-05-22T14:59:12.067Z,74652.47
2023-05-22T15:01:39.268Z,74660.63
2023-05-22T15:04:06.379Z,74669.34
2023-05-22T15:06:33.147Z,74677.56
2023-05-22T15:08:59.875Z,74677.56
2023-05-22T15:11:26.985Z,74677.56
2023-05-22T15:13:56.531Z,74690.56
2023-05-22T15:16:23.277Z,74706.72
2023-05-22T15:18:50.309Z,74725.28
2023-05-22T15:21:17.379Z,74743.13
2023-05-22T15:23:44.298Z,74743.13
2023-05-22T15:26:12.305Z,74753.03
2023-05-22T15:28:39.052Z,74760.09
2023-05-22T15:31:05.657Z,74769.03
2023-05-22T15:33:33.984Z,74788.03
2023-05-22T15:36:00.878Z,74813.69
2023-05-22T15:38:28.376Z,74851.63
2023-05-22T15:40:55.158Z,74901.63
2023-05-22T15:43:24.295Z,74959.63
2023-05-22T15:45:52.428Z,75023.03
2023-05-22T15:48:19.162Z,75089.63
2023-05-22T15:50:45.870Z,75153.88
2023-05-22T15:53:12.628Z,75221.91
2023-05-22T15:55:39.606Z,75283.22
2023-05-22T15:58:07.967Z,75338.66
2023-05-22T16:00:41.153Z,75393.47
2023-05-22T16:03:08.971Z,75443.53
2023-05-22T16:05:38.854Z,75488.97
2023-05-22T16:08:12.721Z,75540.84
2023-05-22T16:10:41.653Z,75594.81
2023-05-22T16:13:10.638Z,75651.69
2023-05-22T16:15:39.968Z,75694.66
2023-05-22T16:18:07.932Z,75743.91
2023-05-22T16:20:35.880Z,75785.38
2023-05-22T16:23:02.609Z,75818.69
2023-05-22T16:25:29.261Z,75852.50
2023-05-22T16:27:56.016Z,75890.63
2023-05-22T16:30:22.731Z,75930.16
2023-05-22T16:32:49.603Z,75950.75
2023-05-22T16:35:16.415Z,75973.09
2023-05-22T16:37:43.220Z,75995.91
2023-05-22T16:40:10.375Z,76012.00
2023-05-22T16:42:38.352Z,76025.31
2023-05-22T16:45:06.201Z,76041.78
2023-05-22T16:47:33.109Z,76055.13
2023-05-22T16:50:00.019Z,76063.47
2023-05-22T16:52:26.830Z,76063.47
2023-05-22T16:54:53.616Z,76058.41
2023-05-22T16:57:20.438Z,76052.75
2023-05-22T16:59:47.344Z,76050.28
2023-05-22T17:02:14.317Z,76049.44
2023-05-22T17:04:41.132Z,76052.31
2023-05-22T17:07:08.009Z,76060.22
2023-05-22T17:09:34.674Z,76072.31
2023-05-22T17:12:01.497Z,76081.28
2023-05-22T17:14:28.235Z,76092.25
2023-05-22T17:16:55.801Z,76093.94
2023-05-22T17:19:22.992Z,76093.75
2023-05-22T17:21:49.868Z,76089.13
2023-05-22T17:24:16.628Z,76084.25
2023-05-22T17:26:44.088Z,76075.09
2023-05-22T17:29:11.138Z,76067.63
2023-05-22T17:31:39.542Z,76061.59
2023-05-22T17:34:06.606Z,76053.09
2023-05-22T17:36:33.470Z,76036.03
2023-05-22T17:39:00.730Z,76014.00
2023-05-22T17:41:27.553Z,75993.84
2023-05-22T17:43:57.129Z,75979.38
2023-05-22T17:46:23.912Z,75955.84
2023-05-22T17:48:51.254Z,75929.75
2023-05-22T17:51:18.120Z,75897.22
2023-05-22T17:53:44.832Z,75862.78
2023-05-22T17:56:11.551Z,75825.22
2023-05-22T17:58:38.292Z,75784.03
2023-05-22T18:01:05.054Z,75741.34
2023-05-22T18:03:31.939Z,75699.75
2023-05-22T18:05:58.756Z,75656.78
2023-05-22T18:08:25.634Z,75616.09
2023-05-22T18:10:52.405Z,75575.72
2023-05-22T18:13:19.605Z,75536.09
2023-05-22T18:15:48.349Z,75536.09
2023-05-22T18:18:16.331Z,75536.09
2023-05-22T18:20:43.171Z,75493.69
2023-05-22T18:23:09.945Z,75451.22
2023-05-22T18:25:36.594Z,75410.03
2023-05-22T18:28:03.334Z,75369.59
2023-05-22T18:30:30.223Z,75369.59
2023-05-22T18:32:57.115Z,75330.28
2023-05-22T18:35:23.893Z,75330.28
2023-05-22T18:37:50.665Z,75330.28
2023-05-22T18:40:17.769Z,71793.91
2023-05-22T18:42:44.586Z,75288.78
2023-05-22T18:45:11.871Z,75249.91
2023-05-22T18:47:39.106Z,75249.91
2023-05-22T18:50:06.757Z,75212.34
2023-05-22T18:52:33.532Z,75212.34
2023-05-22T18:55:00.278Z,71793.91
2023-05-22T18:57:27.010Z,75137.94
2023-05-22T18:59:53.827Z,75102.97
2023-05-22T19:02:21.939Z,75069.00
2023-05-22T19:04:50.076Z,71793.91
2023-05-22T19:07:16.881Z,75035.91
2023-05-22T19:09:43.715Z,75003.84
2023-05-22T19:12:10.518Z,74973.25
2023-05-22T19:14:37.220Z,74944.50
2023-05-22T19:17:04.223Z,74916.50
2023-05-22T19:19:31.053Z,74889.91
2023-05-22T19:21:57.840Z,74889.91
2023-05-22T19:24:26.373Z,71793.91
2023-05-22T19:26:53.095Z,71793.91
2023-05-22T19:29:19.802Z,71793.91
2023-05-22T19:31:46.594Z,74837.34
2023-05-22T19:34:13.299Z,74813.22
2023-05-22T19:36:40.041Z,74789.34
2023-05-22T19:39:06.680Z,74766.38
2023-05-22T19:41:33.412Z,71793.91
2023-05-22T19:44:00.010Z,71793.91
2023-05-22T19:46:26.877Z,71793.91
2023-05-22T19:48:53.953Z,71793.91
2023-05-22T19:51:20.727Z,74744.44
2023-05-22T19:53:47.397Z,74722.69
2023-05-22T19:56:14.131Z,71793.91
2023-05-22T19:58:41.215Z,74701.38
2023-05-22T20:01:07.927Z,74681.34
2023-05-22T20:03:34.752Z,74661.63
2023-05-22T20:06:01.835Z,74642.38
2023-05-22T20:08:29.030Z,71793.91
2023-05-22T20:10:55.778Z,74609.06
2023-05-22T20:13:22.735Z,74609.06
2023-05-22T20:15:51.406Z,74592.66
2023-05-22T20:18:18.614Z,74577.00
2023-05-22T20:20:45.355Z,74562.97
2023-05-22T20:23:12.008Z,74548.66
2023-05-22T20:25:39.278Z,74535.22
2023-05-22T20:28:06.588Z,71793.91
2023-05-22T20:30:33.296Z,71793.91
2023-05-22T20:33:00.548Z,74535.22
2023-05-22T20:35:27.381Z,74520.84
2023-05-22T20:37:54.066Z,74520.84
2023-05-22T20:40:20.933Z,74520.84
2023-05-22T20:42:47.720Z,74520.84
2023-05-22T20:45:15.911Z,74520.84
2023-05-22T20:47:43.560Z,74520.84
2023-05-22T20:50:11.371Z,74520.84
2023-05-22T20:52:38.356Z,74520.84
2023-05-22T20:55:06.842Z,74520.84
2023-05-22T20:57:34.548Z,74520.84
2023-05-22T21:00:01.539Z,74520.84
2023-05-22T21:02:28.365Z,74520.84
2023-05-22T21:04:55.452Z,74520.84
2023-05-22T21:07:22.588Z,74505.09
2023-05-22T21:09:49.956Z,74505.09
2023-05-22T21:12:16.950Z,74490.19
2023-05-22T21:14:44.148Z,74490.19
2023-05-22T21:17:11.159Z,74476.94
2023-05-22T21:19:38.747Z,74476.94
2023-05-22T21:22:05.599Z,74463.88
2023-05-22T21:24:32.655Z,74452.22
2023-05-22T21:26:59.336Z,74440.41
2023-05-22T21:29:26.192Z,74440.41
2023-05-22T21:31:52.965Z,74440.41
2023-05-22T21:34:19.939Z,74417.28
2023-05-22T21:36:46.587Z,74417.28
2023-05-22T21:39:13.405Z,74405.63
2023-05-22T21:41:40.806Z,75814.09
2023-05-22T21:44:10.050Z,57161.06
2023-05-22T21:46:37.281Z,74383.56
2023-05-22T21:49:05.947Z,74383.56
2023-05-22T21:51:32.640Z,74383.56
2023-05-22T21:53:59.334Z,74383.75
2023-05-22T21:56:27.017Z,74383.56
2023-05-22T21:58:53.796Z,74371.75
2023-05-22T22:01:20.808Z,74371.75
2023-05-22T22:03:47.605Z,74371.75
2023-05-22T22:06:14.351Z,74371.75
2023-05-22T22:08:41.154Z,74371.75
2023-05-22T22:11:07.818Z,74359.84
2023-05-22T22:13:34.565Z,74359.84
2023-05-22T22:16:01.559Z,74359.84
2023-05-22T22:18:32.322Z,74359.84
2023-05-22T22:21:02.234Z,74349.34
2023-05-22T22:23:29.382Z,74349.34
2023-05-22T22:25:56.213Z,74339.47
2023-05-22T22:28:22.979Z,74330.63
2023-05-22T22:30:49.829Z,74330.63
2023-05-22T22:33:19.470Z,74330.63
2023-05-22T22:35:46.340Z,74330.63
2023-05-22T22:38:13.066Z,74323.50
2023-05-22T22:40:40.987Z,74316.88
2023-05-22T22:43:08.615Z,74316.88
2023-05-22T22:45:36.540Z,74316.88
2023-05-22T22:48:03.793Z,74316.88
2023-05-22T22:50:30.629Z,74316.88
2023-05-22T22:53:00.251Z,74316.88
2023-05-22T22:55:28.157Z,74316.88
2023-05-22T22:57:55.012Z,74316.88
2023-05-22T23:00:21.770Z,74312.00
2023-05-22T23:02:48.598Z,74306.63
2023-05-22T23:05:20.013Z,71793.91
2023-05-22T23:07:47.698Z,74306.63
2023-05-22T23:10:15.706Z,74299.16
2023-05-22T23:12:42.940Z,74299.16
2023-05-22T23:15:25.852Z,71793.91
2023-05-22T23:17:52.648Z,74299.16
2023-05-22T23:20:19.282Z,74293.34
2023-05-22T23:22:47.250Z,74293.34
2023-05-22T23:25:14.537Z,74293.34
2023-05-22T23:27:44.513Z,74293.34
2023-05-22T23:30:13.275Z,74293.34
2023-05-22T23:32:43.795Z,74293.34
2023-05-22T23:35:11.203Z,74287.59
2023-05-22T23:37:38.290Z,74287.59
2023-05-22T23:40:06.771Z,74280.97
2023-05-22T23:42:35.648Z,74280.97
2023-05-22T23:45:04.030Z,74280.97
2023-05-22T23:47:30.798Z,74280.97
2023-05-22T23:49:59.510Z,71793.91
2023-05-22T23:52:26.879Z,74272.84
2023-05-22T23:54:53.720Z,70583.19
2023-05-22T23:57:20.581Z,71793.91
2023-05-22T23:59:47.182Z,74264.44
